createdAt,value
2018-09-05T00:00:28.288Z,70.30
2018-09-05T00:02:56.499Z,71.00
2018-09-05T00:05:24.765Z,70.50
2018-09-05T00:07:52.988Z,70.60
2018-09-05T00:10:21.236Z,70.70
2018-09-05T00:12:49.468Z,70.60
2018-09-05T00:15:17.717Z,70.70
2018-09-05T00:17:45.932Z,70.80
2018-09-05T00:20:14.157Z,71.00
2018-09-05T00:22:42.374Z,70.90
2018-09-05T00:25:10.616Z,70.90
2018-09-05T00:27:38.849Z,71.00
2018-09-05T00:30:07.132Z,71.30
2018-09-05T00:32:35.361Z,71.30
2018-09-05T00:35:03.613Z,71.20
2018-09-05T00:37:31.849Z,71.30
2018-09-05T00:40:00.188Z,71.60
2018-09-05T00:42:28.422Z,71.60
2018-09-05T00:44:56.624Z,71.60
2018-09-05T00:47:24.894Z,71.50
2018-09-05T00:49:57.344Z,71.40
2018-09-05T00:52:25.612Z,71.40
2018-09-05T00:54:54.228Z,71.50
2018-09-05T00:57:22.441Z,71.50
2018-09-05T00:59:50.813Z,71.50
2018-09-05T01:02:19.062Z,71.60
2018-09-05T01:04:47.281Z,71.70
2018-09-05T01:07:23.896Z,71.70
2018-09-05T01:09:52.157Z,71.80
2018-09-05T01:12:21.438Z,72.00
2018-09-05T01:14:50.548Z,72.10
2018-09-05T01:17:18.784Z,72.20
2018-09-05T01:19:47.013Z,72.20
2018-09-05T01:22:15.256Z,72.10
2018-09-05T01:24:43.472Z,72.20
2018-09-05T01:27:12.168Z,72.20
2018-09-05T01:29:41.340Z,72.20
2018-09-05T01:32:10.538Z,72.00
2018-09-05T01:34:39.928Z,72.00
2018-09-05T01:37:08.535Z,72.20
2018-09-05T01:39:36.772Z,72.50
2018-09-05T01:42:05.029Z,72.40
2018-09-05T01:44:33.280Z,72.30
2018-09-05T01:47:01.548Z,72.40
2018-09-05T01:49:29.810Z,72.30
2018-09-05T01:51:59.288Z,72.40
2018-09-05T01:54:27.559Z,72.50
2018-09-05T01:56:56.259Z,72.60
2018-09-05T01:59:25.381Z,72.60
2018-09-05T02:01:53.584Z,72.60
2018-09-05T02:04:21.821Z,72.60
2018-09-05T02:06:50.072Z,72.60
2018-09-05T02:09:18.312Z,72.60
2018-09-05T02:11:46.538Z,72.70
2018-09-05T02:14:14.768Z,72.70
2018-09-05T02:16:43.186Z,72.90
2018-09-05T02:19:11.427Z,73.50
2018-09-05T02:21:39.642Z,73.00
2018-09-05T02:24:07.884Z,73.00
2018-09-05T02:26:36.091Z,72.90
2018-09-05T02:29:04.340Z,72.80
2018-09-05T02:31:32.555Z,72.70
2018-09-05T02:34:00.848Z,72.90
2018-09-05T02:36:29.084Z,73.10
2018-09-05T02:38:57.328Z,72.90
2018-09-05T02:41:25.565Z,73.00
2018-09-05T02:44:24.330Z,73.60
2018-09-05T02:46:52.697Z,73.30
2018-09-05T02:49:20.963Z,73.40
2018-09-05T02:51:49.200Z,73.60
2018-09-05T02:54:17.433Z,74.50
2018-09-05T02:56:45.675Z,74.60
2018-09-05T02:59:13.892Z,74.00
2018-09-05T03:01:42.125Z,74.00
2018-09-05T03:04:10.338Z,74.00
2018-09-05T03:06:38.572Z,74.30
2018-09-05T03:09:07.460Z,74.40
2018-09-05T03:11:35.737Z,74.60
2018-09-05T03:14:03.957Z,75.30
2018-09-05T03:16:32.196Z,74.80
2018-09-05T03:19:00.424Z,74.80
2018-09-05T03:21:28.668Z,75.20
2018-09-05T03:23:56.904Z,75.20
2018-09-05T03:26:25.152Z,75.20
2018-09-05T03:28:53.386Z,75.60
2018-09-05T03:31:21.620Z,75.90
2018-09-05T03:33:49.868Z,76.00
2018-09-05T03:36:18.220Z,75.90
2018-09-05T03:38:46.396Z,75.80
2018-09-05T03:41:14.604Z,75.60
2018-09-05T03:43:42.860Z,75.70
2018-09-05T03:46:11.078Z,75.90
2018-09-05T03:48:39.388Z,75.70
2018-09-05T03:51:07.612Z,75.60
2018-09-05T03:53:35.880Z,75.70
2018-09-05T03:56:04.140Z,76.00
2018-09-05T03:58:32.408Z,76.40
2018-09-05T04:01:00.645Z,76.50
2018-09-05T04:03:28.892Z,76.60
2018-09-05T04:05:57.149Z,76.80
2018-09-05T04:08:25.401Z,77.20
2018-09-05T04:10:53.616Z,77.30
2018-09-05T04:13:21.868Z,77.50
2018-09-05T04:15:50.117Z,77.50
2018-09-05T04:18:18.357Z,77.70
2018-09-05T04:20:46.576Z,77.70
2018-09-05T04:23:14.850Z,77.50
2018-09-05T04:25:43.077Z,77.50
2018-09-05T04:28:11.369Z,77.50
2018-09-05T04:30:39.585Z,77.60
2018-09-05T04:33:07.833Z,77.80
2018-09-05T04:35:36.180Z,77.80
2018-09-05T04:38:04.400Z,77.80
2018-09-05T04:40:32.652Z,78.00
2018-09-05T04:43:00.902Z,77.90
2018-09-05T04:45:29.798Z,77.90
2018-09-05T04:47:58.081Z,77.80
2018-09-05T04:50:26.456Z,77.80
2018-09-05T04:52:54.676Z,78.00
2018-09-05T04:55:22.934Z,78.00
2018-09-05T04:57:51.242Z,78.10
2018-09-05T05:00:19.742Z,78.20
2018-09-05T05:02:47.988Z,78.20
2018-09-05T05:05:16.260Z,78.30
2018-09-05T05:07:44.484Z,78.40
2018-09-05T05:10:12.740Z,78.40
2018-09-05T05:12:40.975Z,78.30
2018-09-05T05:15:09.200Z,78.20
2018-09-05T05:17:37.437Z,78.20
2018-09-05T05:20:05.686Z,78.20
2018-09-05T05:22:33.895Z,78.50
2018-09-05T05:25:02.108Z,79.10
2018-09-05T05:27:30.356Z,79.00
2018-09-05T05:29:58.576Z,79.00
2018-09-05T05:32:26.862Z,78.90
2018-09-05T05:34:55.167Z,78.70
2018-09-05T05:37:23.417Z,79.00
2018-09-05T05:39:51.656Z,79.10
2018-09-05T05:42:19.913Z,78.90
2018-09-05T05:44:48.182Z,78.90
2018-09-05T05:47:16.443Z,78.70
2018-09-05T05:49:44.704Z,78.50
2018-09-05T05:52:12.938Z,78.70
2018-09-05T05:54:41.180Z,78.60
2018-09-05T05:57:09.412Z,78.60
2018-09-05T05:59:37.657Z,78.70
2018-09-05T06:02:05.889Z,78.30
2018-09-05T06:04:34.175Z,78.70
2018-09-05T06:07:02.445Z,78.60
2018-09-05T06:09:30.680Z,78.30
2018-09-05T06:11:58.997Z,78.20
2018-09-05T06:14:27.181Z,78.00
2018-09-05T06:16:55.428Z,78.00
2018-09-05T06:19:23.874Z,77.80
2018-09-05T06:21:52.140Z,77.70
2018-09-05T06:24:20.401Z,78.10
2018-09-05T06:26:48.736Z,77.40
2018-09-05T06:29:17.477Z,77.30
2018-09-05T06:31:46.360Z,77.50
2018-09-05T06:34:14.919Z,77.20
2018-09-05T06:36:43.305Z,77.20
2018-09-05T06:39:11.764Z,76.90
2018-09-05T06:41:40.332Z,77.00
2018-09-05T06:44:09.089Z,77.00
2018-09-05T06:46:37.404Z,76.80
2018-09-05T06:49:06.703Z,76.70
2018-09-05T06:51:34.989Z,76.70
2018-09-05T06:54:03.274Z,76.50
2018-09-05T06:56:31.508Z,76.40
2018-09-05T06:58:59.821Z,76.30
2018-09-05T07:01:28.156Z,76.00
2018-09-05T07:03:56.480Z,76.30
2018-09-05T07:06:24.689Z,76.10
2018-09-05T07:08:52.996Z,75.80
2018-09-05T07:11:22.243Z,75.80
2018-09-05T07:13:50.465Z,75.80
2018-09-05T07:16:18.768Z,75.80
2018-09-05T07:18:47.090Z,75.70
2018-09-05T07:21:16.002Z,75.50
2018-09-05T07:23:44.160Z,75.50
2018-09-05T07:26:12.438Z,75.40
2018-09-05T07:28:40.668Z,75.30
2018-09-05T07:31:10.012Z,75.30
2018-09-05T07:33:38.317Z,75.00
2018-09-05T07:36:06.587Z,75.00
2018-09-05T07:38:35.521Z,74.80
2018-09-05T07:41:03.809Z,74.60
2018-09-05T07:43:32.053Z,74.70
2018-09-05T07:46:00.869Z,74.60
2018-09-05T07:48:29.217Z,74.40
2018-09-05T07:50:57.539Z,74.10
2018-09-05T07:53:25.785Z,73.80
2018-09-05T07:55:54.342Z,73.60
2018-09-05T07:58:22.594Z,73.50
2018-09-05T08:00:51.043Z,73.40
2018-09-05T08:03:19.285Z,73.10
2018-09-05T08:05:47.505Z,72.80
2018-09-05T08:08:15.761Z,72.50
2018-09-05T08:10:43.992Z,72.30
2018-09-05T08:13:12.292Z,72.10
2018-09-05T08:15:40.566Z,72.00
2018-09-05T08:18:08.936Z,72.40
2018-09-05T08:20:37.120Z,71.60
2018-09-05T08:23:05.549Z,71.30
2018-09-05T08:25:33.780Z,71.10
2018-09-05T08:28:03.180Z,70.90
2018-09-05T08:30:31.554Z,70.60
2018-09-05T08:32:59.784Z,70.50
2018-09-05T08:35:28.429Z,70.30
2018-09-05T08:37:56.452Z,70.20
2018-09-05T08:40:24.628Z,70.10
2018-09-05T08:42:52.979Z,69.70
2018-09-05T08:45:21.808Z,69.40
2018-09-05T08:47:49.869Z,69.10
2018-09-05T08:50:18.320Z,68.80
2018-09-05T08:52:46.611Z,68.50
2018-09-05T08:55:14.927Z,68.30
2018-09-05T08:57:43.189Z,68.10
2018-09-05T09:00:11.399Z,67.80
2018-09-05T09:02:39.640Z,67.60
2018-09-05T09:05:08.204Z,67.50
2018-09-05T09:07:36.641Z,67.90
2018-09-05T09:10:05.228Z,66.90
2018-09-05T09:12:33.505Z,66.60
2018-09-05T09:15:01.732Z,66.30
2018-09-05T09:17:29.962Z,66.10
2018-09-05T09:19:58.201Z,66.00
2018-09-05T09:22:26.449Z,65.60
2018-09-05T09:24:54.696Z,65.40
2018-09-05T09:27:22.924Z,65.10
2018-09-05T09:29:51.168Z,65.00
2018-09-05T09:32:19.588Z,64.60
2018-09-05T09:34:47.873Z,64.30
2018-09-05T09:37:16.130Z,64.10
2018-09-05T09:39:44.661Z,64.00
2018-09-05T09:42:12.878Z,63.90
2018-09-05T09:44:41.101Z,63.50
2018-09-05T09:47:09.338Z,63.40
2018-09-05T09:49:37.648Z,63.10
2018-09-05T09:52:11.248Z,63.00
2018-09-05T09:54:39.560Z,62.70
2018-09-05T09:57:07.830Z,62.60
2018-09-05T09:59:36.081Z,62.50
2018-09-05T10:02:09.498Z,62.20
2018-09-05T10:04:43.239Z,62.00
2018-09-05T10:07:16.888Z,61.70
2018-09-05T10:09:50.613Z,61.70
2018-09-05T10:12:24.197Z,61.50
2018-09-05T10:14:56.768Z,61.30
2018-09-05T10:17:32.750Z,60.80
2018-09-05T10:20:01.623Z,60.40
2018-09-05T10:22:31.081Z,60.10
2018-09-05T10:24:59.317Z,59.90
2018-09-05T10:27:28.204Z,60.20
2018-09-05T10:29:56.848Z,59.50
2018-09-05T10:32:25.576Z,59.20
2018-09-05T10:34:54.745Z,58.80
2018-09-05T10:37:22.991Z,58.60
2018-09-05T10:39:51.224Z,58.30
2018-09-05T10:42:19.495Z,58.10
2018-09-05T10:44:47.781Z,57.60
2018-09-05T10:47:16.032Z,57.10
2018-09-05T10:49:44.281Z,56.60
2018-09-05T10:52:12.576Z,55.90
2018-09-05T10:54:41.108Z,55.30
2018-09-05T10:57:09.465Z,54.80
2018-09-05T10:59:39.823Z,54.50
2018-09-05T11:02:08.132Z,54.10
2018-09-05T11:04:36.356Z,54.30
2018-09-05T11:07:04.863Z,53.40
2018-09-05T11:09:33.085Z,53.20
2018-09-05T11:12:01.449Z,52.90
2018-09-05T11:14:30.950Z,52.50
2018-09-05T11:16:59.176Z,52.20
2018-09-05T11:19:27.506Z,52.00
2018-09-05T11:21:55.879Z,51.70
2018-09-05T11:24:24.163Z,51.30
2018-09-05T11:26:52.435Z,50.50
2018-09-05T11:29:20.732Z,50.00
2018-09-05T11:31:49.013Z,49.50
2018-09-05T11:34:17.245Z,48.90
2018-09-05T11:36:45.487Z,48.50
2018-09-05T11:39:14.410Z,48.30
2018-09-05T11:41:42.712Z,48.00
2018-09-05T11:44:11.046Z,47.50
2018-09-05T11:46:45.558Z,47.00
2018-09-05T11:49:13.852Z,46.70
2018-09-05T11:51:42.515Z,47.10
2018-09-05T11:54:10.820Z,47.30
2018-09-05T11:56:39.457Z,46.90
2018-09-05T11:59:08.008Z,46.70
2018-09-05T12:01:36.248Z,46.50
2018-09-05T12:04:04.517Z,46.20
2018-09-05T12:06:32.889Z,45.70
2018-09-05T12:09:01.140Z,45.30
2018-09-05T12:11:29.493Z,45.10
2018-09-05T12:13:57.767Z,45.10
2018-09-05T12:16:25.996Z,44.80
2018-09-05T12:18:54.341Z,44.60
2018-09-05T12:21:22.579Z,44.40
2018-09-05T12:23:50.852Z,44.80
2018-09-05T12:26:19.056Z,45.20
2018-09-05T12:28:47.328Z,44.80
2018-09-05T12:31:17.185Z,44.80
2018-09-05T12:33:45.595Z,44.40
2018-09-05T12:36:14.017Z,44.20
2018-09-05T12:38:42.559Z,43.70
2018-09-05T12:41:10.962Z,42.80
2018-09-05T12:43:39.308Z,42.40
2018-09-05T12:46:07.657Z,42.20
2018-09-05T12:48:36.270Z,41.70
2018-09-05T12:51:04.748Z,41.30
2018-09-05T12:53:33.070Z,41.10
2018-09-05T12:56:01.325Z,41.30
2018-09-05T12:58:29.653Z,40.60
2018-09-05T13:00:57.897Z,40.50
2018-09-05T13:03:26.269Z,40.30
2018-09-05T13:05:54.503Z,40.30
2018-09-05T13:08:22.794Z,40.20
2018-09-05T13:10:51.116Z,40.10
2018-09-05T13:13:19.397Z,39.90
2018-09-05T13:15:47.820Z,40.20
2018-09-05T13:18:16.182Z,39.20
2018-09-05T13:20:44.424Z,39.10
2018-09-05T13:23:12.803Z,38.90
2018-09-05T13:25:41.232Z,38.50
2018-09-05T13:28:09.612Z,38.20
2018-09-05T13:30:37.955Z,38.00
2018-09-05T13:33:06.490Z,38.00
2018-09-05T13:35:34.885Z,38.00
2018-09-05T13:38:04.653Z,38.20
2018-09-05T13:40:33.113Z,38.30
2018-09-05T13:43:01.458Z,38.50
2018-09-05T13:45:30.114Z,38.40
2018-09-05T13:47:58.432Z,38.20
2018-09-05T13:50:26.764Z,38.20
2018-09-05T13:52:55.075Z,38.20
2018-09-05T13:55:23.356Z,38.20
2018-09-05T13:57:51.621Z,38.10
2018-09-05T14:00:19.903Z,38.20
2018-09-05T14:02:48.624Z,38.20
2018-09-05T14:05:17.461Z,38.20
2018-09-05T14:07:45.705Z,37.90
2018-09-05T14:10:15.048Z,37.60
2018-09-05T14:12:43.349Z,37.40
2018-09-05T14:15:11.615Z,37.20
2018-09-05T14:17:39.897Z,37.10
2018-09-05T14:20:08.148Z,37.00
2018-09-05T14:22:37.404Z,36.70
2018-09-05T14:25:05.669Z,36.30
2018-09-05T14:27:33.970Z,35.90
2018-09-05T14:30:02.285Z,35.60
2018-09-05T14:32:30.572Z,35.70
2018-09-05T14:34:58.786Z,35.40
2018-09-05T14:37:27.013Z,35.20
2018-09-05T14:42:29.573Z,35.80
2018-09-05T14:44:57.848Z,36.10
2018-09-05T14:47:26.065Z,36.30
2018-09-05T14:49:54.344Z,36.40
2018-09-05T14:52:22.613Z,36.30
2018-09-05T14:54:51.013Z,36.10
2018-09-05T14:57:19.301Z,36.00
2018-09-05T14:59:47.670Z,36.00
2018-09-05T15:02:15.836Z,36.10
2018-09-05T15:04:44.101Z,36.10
2018-09-05T15:07:12.317Z,36.10
2018-09-05T15:09:40.573Z,36.30
2018-09-05T15:12:08.799Z,36.40
2018-09-05T15:14:37.060Z,36.50
2018-09-05T15:17:05.324Z,36.50
2018-09-05T15:19:33.556Z,36.30
2018-09-05T15:22:01.812Z,36.70
2018-09-05T15:24:30.022Z,35.80
2018-09-05T15:26:58.260Z,35.80
2018-09-05T15:29:26.463Z,36.00
2018-09-05T15:31:54.776Z,36.20
2018-09-05T15:34:23.046Z,36.40
2018-09-05T15:36:51.292Z,36.60
2018-09-05T15:39:19.576Z,36.70
2018-09-05T15:41:47.860Z,36.80
2018-09-05T15:44:16.177Z,36.90
2018-09-05T15:46:44.691Z,37.00
2018-09-05T15:49:14.045Z,37.20
2018-09-05T15:51:42.280Z,37.50
2018-09-05T15:54:10.522Z,37.60
2018-09-05T15:56:38.769Z,37.50
2018-09-05T15:59:07.035Z,37.50
2018-09-05T16:01:35.296Z,37.50
2018-09-05T16:04:03.544Z,37.60
2018-09-05T16:06:31.826Z,37.80
2018-09-05T16:09:00.093Z,38.10
2018-09-05T16:11:28.324Z,38.30
2018-09-05T16:13:56.613Z,38.50
2018-09-05T16:16:24.914Z,38.70
2018-09-05T16:18:53.203Z,38.40
2018-09-05T16:21:21.502Z,38.00
2018-09-05T16:23:49.760Z,37.80
2018-09-05T16:26:18.017Z,37.90
2018-09-05T16:28:46.283Z,38.00
2018-09-05T16:31:14.759Z,37.90
2018-09-05T16:33:43.025Z,38.10
2018-09-05T16:36:11.346Z,38.20
2018-09-05T16:38:39.713Z,38.50
2018-09-05T16:41:07.956Z,38.70
2018-09-05T16:43:36.230Z,38.90
2018-09-05T16:46:04.452Z,39.00
2018-09-05T16:48:32.785Z,39.20
2018-09-05T16:51:01.004Z,39.40
2018-09-05T16:53:29.272Z,39.50
2018-09-05T16:55:57.531Z,39.60
2018-09-05T16:58:25.879Z,39.60
2018-09-05T17:00:54.128Z,39.60
2018-09-05T17:03:22.370Z,39.60
2018-09-05T17:05:50.638Z,39.60
2018-09-05T17:08:18.928Z,39.60
2018-09-05T17:10:47.255Z,39.60
2018-09-05T17:13:15.514Z,39.70
2018-09-05T17:15:43.748Z,39.70
2018-09-05T17:18:12.005Z,39.80
2018-09-05T17:20:40.272Z,39.90
2018-09-05T17:23:08.492Z,39.90
2018-09-05T17:25:36.744Z,40.00
2018-09-05T17:28:04.981Z,40.00
2018-09-05T17:30:33.251Z,40.10
2018-09-05T17:33:01.493Z,40.30
2018-09-05T17:35:29.785Z,40.70
2018-09-05T17:37:58.046Z,41.00
2018-09-05T17:40:26.312Z,41.20
2018-09-05T17:42:54.556Z,41.60
2018-09-05T17:45:22.792Z,41.80
2018-09-05T17:47:51.033Z,42.10
2018-09-05T17:50:19.320Z,42.50
2018-09-05T17:52:53.562Z,42.80
2018-09-05T17:55:21.812Z,43.00
2018-09-05T17:57:50.092Z,43.30
2018-09-05T18:00:18.342Z,43.50
2018-09-05T18:02:46.605Z,43.70
2018-09-05T18:05:14.831Z,43.70
2018-09-05T18:07:43.093Z,43.70
2018-09-05T18:10:11.321Z,43.90
2018-09-05T18:12:39.598Z,44.20
2018-09-05T18:15:07.818Z,44.40
2018-09-05T18:17:36.097Z,44.50
2018-09-05T18:20:04.364Z,44.50
2018-09-05T18:22:32.620Z,44.60
2018-09-05T18:25:00.857Z,44.70
2018-09-05T18:27:29.103Z,44.80
2018-09-05T18:29:57.340Z,45.10
2018-09-05T18:32:25.620Z,45.10
2018-09-05T18:34:53.850Z,45.30
2018-09-05T18:37:22.097Z,45.60
2018-09-05T18:39:50.361Z,45.70
2018-09-05T18:42:18.597Z,45.90
2018-09-05T18:44:46.835Z,46.10
2018-09-05T18:47:15.077Z,46.30
2018-09-05T18:49:43.332Z,46.50
2018-09-05T18:52:11.656Z,46.70
2018-09-05T18:54:39.889Z,46.80
2018-09-05T18:57:08.129Z,46.90
2018-09-05T18:59:36.385Z,46.90
2018-09-05T19:02:04.657Z,47.10
2018-09-05T19:04:32.908Z,47.30
2018-09-05T19:07:01.244Z,47.50
2018-09-05T19:09:30.524Z,48.10
2018-09-05T19:11:58.773Z,47.60
2018-09-05T19:14:27.025Z,47.70
2018-09-05T19:16:55.270Z,47.80
2018-09-05T19:19:23.578Z,47.90
2018-09-05T19:21:51.788Z,48.10
2018-09-05T19:24:20.067Z,48.30
2018-09-05T19:26:48.320Z,48.40
2018-09-05T19:29:17.563Z,48.60
2018-09-05T19:31:45.773Z,48.80
2018-09-05T19:34:14.008Z,48.80
2018-09-05T19:36:42.248Z,48.90
2018-09-05T19:39:11.472Z,49.00
2018-09-05T19:41:39.720Z,49.20
2018-09-05T19:44:08.121Z,49.30
2018-09-05T19:46:36.408Z,49.50
2018-09-05T19:49:04.676Z,49.50
2018-09-05T19:51:32.941Z,49.50
2018-09-05T19:54:01.155Z,49.50
2018-09-05T19:56:29.427Z,49.60
2018-09-05T19:58:57.669Z,49.60
2018-09-05T20:01:25.921Z,49.70
2018-09-05T20:03:54.161Z,49.90
2018-09-05T20:06:22.444Z,50.20
2018-09-05T20:08:50.715Z,50.50
2018-09-05T20:11:18.964Z,50.70
2018-09-05T20:13:47.189Z,50.80
2018-09-05T20:16:15.484Z,51.00
2018-09-05T20:18:43.720Z,51.00
2018-09-05T20:21:11.996Z,51.20
2018-09-05T20:23:40.248Z,51.50
2018-09-05T20:26:08.516Z,51.60
2018-09-05T20:28:36.732Z,51.40
2018-09-05T20:31:05.137Z,51.90
2018-09-05T20:33:33.468Z,52.00
2018-09-05T20:36:01.714Z,52.00
2018-09-05T20:38:31.134Z,52.10
2018-09-05T20:40:59.397Z,52.20
2018-09-05T20:43:27.686Z,52.30
2018-09-05T20:45:56.016Z,52.40
2018-09-05T20:48:24.292Z,52.70
2018-09-05T20:50:52.644Z,52.70
2018-09-05T20:53:20.885Z,52.80
2018-09-05T20:55:49.128Z,53.00
2018-09-05T20:58:17.440Z,53.10
2018-09-05T21:00:46.070Z,53.30
2018-09-05T21:03:14.329Z,53.40
2018-09-05T21:05:42.573Z,53.50
2018-09-05T21:08:10.796Z,53.70
2018-09-05T21:10:39.025Z,53.60
2018-09-05T21:13:07.232Z,53.70
2018-09-05T21:15:35.476Z,53.90
2018-09-05T21:18:03.776Z,54.00
2018-09-05T21:20:31.949Z,54.30
2018-09-05T21:23:00.156Z,54.50
2018-09-05T21:25:28.404Z,54.60
2018-09-05T21:27:56.624Z,54.70
2018-09-05T21:30:24.848Z,54.70
2018-09-05T21:32:53.064Z,54.80
2018-09-05T21:35:21.300Z,54.90
2018-09-05T21:37:49.516Z,55.00
2018-09-05T21:42:52.032Z,55.10
2018-09-05T21:45:20.261Z,55.20
2018-09-05T21:47:48.488Z,55.30
2018-09-05T21:50:18.397Z,55.40
2018-09-05T21:52:46.700Z,55.30
2018-09-05T21:55:14.857Z,55.50
2018-09-05T21:57:43.104Z,55.50
2018-09-05T22:00:11.688Z,56.30
2018-09-05T22:02:39.924Z,55.70
2018-09-05T22:05:08.164Z,55.70
2018-09-05T22:07:36.423Z,55.90
2018-09-05T22:10:04.644Z,55.90
2018-09-05T22:12:32.872Z,55.90
2018-09-05T22:15:01.084Z,56.00
2018-09-05T22:17:29.314Z,56.00
2018-09-05T22:19:57.536Z,55.90
2018-09-05T22:22:25.796Z,56.00
2018-09-05T22:24:54.079Z,55.90
2018-09-05T22:27:22.300Z,56.10
2018-09-05T22:29:50.588Z,56.10
2018-09-05T22:32:18.844Z,56.40
2018-09-05T22:34:47.056Z,56.40
2018-09-05T22:37:15.270Z,56.60
2018-09-05T22:39:43.504Z,56.70
2018-09-05T22:42:13.077Z,56.80
2018-09-05T22:44:53.913Z,56.90
2018-09-05T22:47:33.426Z,57.00
2018-09-05T22:52:22.934Z,57.10
2018-09-05T22:56:15.634Z,57.00
2018-09-05T23:01:01.416Z,56.80
2018-09-05T23:05:49.705Z,56.80
2018-09-05T23:08:32.996Z,56.80
2018-09-05T23:11:12.645Z,57.00
2018-09-05T23:13:52.276Z,57.30
2018-09-05T23:16:31.881Z,57.50
2018-09-05T23:19:25.845Z,57.60
2018-09-05T23:21:54.081Z,57.60
2018-09-05T23:24:22.321Z,57.80
2018-09-05T23:26:50.597Z,58.10
2018-09-05T23:29:18.809Z,58.10
2018-09-05T23:31:47.057Z,58.20
2018-09-05T23:34:15.275Z,58.20
2018-09-05T23:36:43.529Z,58.30
2018-09-05T23:39:11.758Z,58.40
2018-09-05T23:41:40.119Z,58.40
2018-09-05T23:44:08.333Z,58.30
2018-09-05T23:46:36.554Z,58.40
2018-09-05T23:49:04.836Z,58.50
2018-09-05T23:51:33.109Z,58.50
2018-09-05T23:54:01.434Z,58.60
2018-09-05T23:56:29.665Z,58.60
2018-09-05T23:58:57.941Z,58.60
